LYBE/BEG METAR and TAF weather

Enter ICAO airport designator
Station Type Date Time Source
LYBE METAR 2021/02/25 16:00 UTC NOAA

LYBE 251600Z 05004KT CAVOK 17/06 Q1031 NOSIG


Station Type Date Time Source
LYBE Decoded METAR 2021/02/25 16:00 UTC NOAA

Beograd / Surcin, Serbia and Montenegro (LYBE) 44-49N 020-17E 99M
Feb 25, 2021 - 11:00 AM EST / 2021.02.25 1600 UTC
Wind: from the NE (050 degrees) at 5 MPH (4 KT):0
Visibility: greater than 7 mile(s):0
Temperature: 62 F (17 C)
Dew Point: 42 F (6 C)
Relative Humidity: 48%
Pressure (altimeter): 30.45 in. Hg (1031 hPa)
ob: LYBE 251600Z 05004KT CAVOK 17/06 Q1031 NOSIG
cycle: 16

Station Type Date Time Source
LYBE TAF 2021/02/25 12:21 UTC NOAA

TAF LYBE 251100Z 2512/2612 10005KT CAVOK TX18/2513Z TN03/2605Z
BECMG 2523/2601 3000 BR
TEMPO 2604/2607 0400 FG
BECMG 2608/2610 6000 NSW

Example: see airport list